createdAt,value
2019-05-10T00:00:37.144Z,0.00
2019-05-10T00:01:37.132Z,0.00
2019-05-10T00:02:37.119Z,0.00
2019-05-10T00:03:37.111Z,0.00
2019-05-10T00:04:37.102Z,0.00
2019-05-10T00:05:37.489Z,0.00
2019-05-10T00:06:37.083Z,0.00
2019-05-10T00:07:37.068Z,0.00
2019-05-10T00:08:37.060Z,0.00
2019-05-10T00:09:37.048Z,0.00
2019-05-10T00:10:37.037Z,0.00
2019-05-10T00:11:37.076Z,0.00
2019-05-10T00:12:37.018Z,5.62
2019-05-10T00:13:37.006Z,5.62
2019-05-10T00:14:37.000Z,5.62
2019-05-10T00:15:36.989Z,5.62
2019-05-10T00:16:36.978Z,5.62
2019-05-10T00:17:37.017Z,5.62
2019-05-10T00:18:36.957Z,11.25
2019-05-10T00:19:36.943Z,11.25
2019-05-10T00:20:36.934Z,11.25
2019-05-10T00:21:36.925Z,16.87
2019-05-10T00:22:36.908Z,16.87
2019-05-10T00:23:37.052Z,16.87
2019-05-10T00:24:36.888Z,22.50
2019-05-10T00:25:36.881Z,22.50
2019-05-10T00:26:36.867Z,28.12
2019-05-10T00:27:36.862Z,28.12
2019-05-10T00:28:36.867Z,28.12
2019-05-10T00:29:36.924Z,33.75
2019-05-10T00:30:36.826Z,33.75
2019-05-10T00:31:36.817Z,39.37
2019-05-10T00:37:37.383Z,73.12
2019-05-10T00:38:04.160Z,78.75
2019-05-10T00:39:04.154Z,84.37
2019-05-10T00:40:04.189Z,90.00
2019-05-10T00:41:04.127Z,95.62
2019-05-10T00:42:04.118Z,106.87
2019-05-10T00:43:04.107Z,112.50
2019-05-10T00:44:04.095Z,112.50
2019-05-10T00:45:04.087Z,123.75
2019-05-10T00:46:04.124Z,135.00
2019-05-10T00:47:04.064Z,140.62
2019-05-10T00:48:04.059Z,146.25
2019-05-10T00:49:04.045Z,151.87
2019-05-10T00:50:10.299Z,163.12
2019-05-10T00:51:04.175Z,174.37
2019-05-10T00:52:04.012Z,185.62
2019-05-10T00:53:04.003Z,196.87
2019-05-10T00:54:03.990Z,202.50
2019-05-10T00:55:17.775Z,213.75
2019-05-10T00:56:31.869Z,230.62
2019-05-10T00:57:28.824Z,241.87
2019-05-10T00:58:28.813Z,253.12
2019-05-10T00:59:28.800Z,264.37
2019-05-10T01:00:28.797Z,270.00
2019-05-10T01:01:28.835Z,275.62
2019-05-10T01:02:28.769Z,292.50
2019-05-10T01:03:28.759Z,298.12
2019-05-10T01:04:28.751Z,309.37
2019-05-10T01:05:28.735Z,320.62
2019-05-10T01:06:28.724Z,331.87
2019-05-10T01:07:28.864Z,354.37
2019-05-10T01:08:28.704Z,365.62
2019-05-10T01:09:28.696Z,376.87
2019-05-10T01:10:28.682Z,388.12
2019-05-10T01:11:28.669Z,405.00
2019-05-10T01:12:28.661Z,416.25
2019-05-10T01:14:32.738Z,438.75
2019-05-10T01:15:28.629Z,444.37
2019-05-10T01:16:28.617Z,461.25
2019-05-10T01:17:28.607Z,472.50
2019-05-10T01:18:28.596Z,483.75
2019-05-10T01:19:28.587Z,489.37
2019-05-10T01:20:28.624Z,500.62
2019-05-10T01:21:28.566Z,506.25
2019-05-10T01:22:28.562Z,517.50
2019-05-10T01:23:28.544Z,528.75
2019-05-10T01:24:28.534Z,540.00
2019-05-10T01:25:35.366Z,551.25
2019-05-10T01:26:29.656Z,568.12
2019-05-10T01:27:28.502Z,590.62
2019-05-10T01:28:28.489Z,601.87
2019-05-10T01:29:28.478Z,630.00
2019-05-10T01:30:28.468Z,708.75
2019-05-10T01:31:28.458Z,1057.50
2019-05-10T01:32:28.497Z,1625.62
2019-05-10T01:33:41.174Z,2025.00
2019-05-10T01:34:28.426Z,2334.37
2019-05-10T01:35:28.417Z,2424.37
2019-05-10T01:36:28.406Z,2171.25
2019-05-10T01:37:28.546Z,1884.37
2019-05-10T01:38:28.384Z,1738.12
2019-05-10T01:39:28.375Z,1670.62
2019-05-10T01:40:28.367Z,1648.12
2019-05-10T01:41:28.353Z,1648.12
2019-05-10T01:42:28.342Z,1698.75
2019-05-10T01:43:28.385Z,1743.75
2019-05-10T01:44:28.320Z,1777.50
2019-05-10T01:45:28.315Z,1783.12
2019-05-10T01:46:28.303Z,1743.75
2019-05-10T01:47:28.291Z,1693.12
2019-05-10T01:48:34.550Z,1653.75
2019-05-10T01:49:28.324Z,1653.75
2019-05-10T01:50:28.262Z,1597.50
2019-05-10T01:51:28.251Z,1648.12
2019-05-10T01:52:28.237Z,1788.75
2019-05-10T01:53:40.965Z,1901.25
2019-05-10T01:58:28.231Z,1760.62
2019-05-10T01:59:28.165Z,1895.62
2019-05-10T02:00:28.155Z,2126.25
2019-05-10T02:01:28.150Z,2351.25
2019-05-10T02:02:28.134Z,2334.37
2019-05-10T02:03:28.274Z,2199.37
2019-05-10T02:04:28.119Z,2053.12
2019-05-10T02:05:28.109Z,2081.25
2019-05-10T02:06:40.828Z,2199.37
2019-05-10T02:07:28.085Z,2390.62
2019-05-10T02:08:28.075Z,2576.25
2019-05-10T02:09:28.115Z,2863.12
2019-05-10T02:10:28.054Z,2970.00
2019-05-10T02:11:28.046Z,2857.50
2019-05-10T02:12:28.039Z,2632.50
2019-05-10T02:13:28.026Z,2480.62
2019-05-10T02:14:28.016Z,2289.37
2019-05-10T02:16:28.045Z,2030.62
2019-05-10T02:17:27.985Z,2002.50
2019-05-10T02:18:27.973Z,2002.50
2019-05-10T02:19:27.965Z,1991.25
2019-05-10T02:20:27.954Z,2081.25
2019-05-10T02:21:28.091Z,2199.37
2019-05-10T02:22:27.932Z,2244.37
2019-05-10T02:23:27.924Z,2227.50
2019-05-10T02:24:27.917Z,2148.75
2019-05-10T02:25:27.901Z,2058.75
2019-05-10T02:27:27.929Z,1890.00
2019-05-10T02:28:27.871Z,1850.62
2019-05-10T02:29:27.861Z,1850.62
2019-05-10T02:33:45.312Z,1816.87
2019-05-10T02:34:26.099Z,1861.87
2019-05-10T02:35:26.090Z,1957.50
2019-05-10T02:36:26.085Z,1884.37
2019-05-10T02:37:26.066Z,1906.87
2019-05-10T02:38:26.205Z,1974.37
2019-05-10T02:39:26.053Z,2002.50
2019-05-10T02:40:26.041Z,2058.75
2019-05-10T02:41:26.029Z,2075.62
2019-05-10T02:42:26.018Z,2030.62
2019-05-10T02:43:26.008Z,2013.75
2019-05-10T02:44:26.099Z,2019.37
2019-05-10T02:45:25.988Z,1996.87
2019-05-10T02:46:25.978Z,1985.62
2019-05-10T02:47:25.969Z,1980.00
2019-05-10T02:48:25.960Z,1974.37
2019-05-10T02:49:25.951Z,1946.25
2019-05-10T02:50:25.991Z,1935.00
2019-05-10T02:51:25.949Z,1890.00
2019-05-10T02:52:25.922Z,1890.00
2019-05-10T02:53:25.910Z,1935.00
2019-05-10T02:54:25.904Z,1873.12
2019-05-10T02:55:25.893Z,1816.87
2019-05-10T02:56:31.316Z,1783.12
2019-05-10T02:57:25.872Z,1783.12
2019-05-10T02:58:25.865Z,1738.12
2019-05-10T02:59:25.854Z,1648.12
2019-05-10T03:00:25.842Z,1620.00
2019-05-10T03:01:25.834Z,1642.50
2019-05-10T03:02:25.886Z,1755.00
2019-05-10T03:03:25.817Z,1845.00
2019-05-10T03:04:25.805Z,1878.75
2019-05-10T03:05:25.799Z,1850.62
2019-05-10T03:06:25.787Z,1743.75
2019-05-10T03:07:25.778Z,1603.12
2019-05-10T03:08:25.815Z,1535.62
2019-05-10T03:09:25.755Z,1648.12
2019-05-10T03:10:25.746Z,1822.50
2019-05-10T03:11:25.736Z,1873.12
2019-05-10T03:12:25.740Z,1777.50
2019-05-10T03:13:27.227Z,1721.25
2019-05-10T03:14:25.858Z,1670.62
2019-05-10T03:15:25.699Z,1653.75
2019-05-10T03:16:25.692Z,1687.50
2019-05-10T03:17:25.691Z,1760.62
2019-05-10T03:18:25.669Z,1800.00
2019-05-10T03:19:25.659Z,1766.25
2019-05-10T03:20:25.751Z,1777.50
2019-05-10T03:21:25.644Z,1811.25
2019-05-10T03:22:25.644Z,1822.50
2019-05-10T03:23:25.622Z,1811.25
2019-05-10T03:24:27.890Z,1783.12
2019-05-10T03:25:25.602Z,1749.37
2019-05-10T03:26:25.646Z,1749.37
2019-05-10T03:27:25.584Z,1755.00
2019-05-10T03:28:25.575Z,1783.12
2019-05-10T03:29:25.572Z,1777.50
2019-05-10T03:30:25.554Z,1715.62
2019-05-10T03:31:25.579Z,1698.75
2019-05-10T03:32:25.687Z,1710.00
2019-05-10T03:33:25.526Z,1721.25
2019-05-10T03:34:25.549Z,1721.25
2019-05-10T03:35:25.506Z,1670.62
2019-05-10T03:36:25.533Z,1614.37
2019-05-10T03:37:25.486Z,1648.12
2019-05-10T03:38:25.527Z,1710.00
2019-05-10T03:39:25.469Z,1670.62
2019-05-10T03:40:25.459Z,1563.75
2019-05-10T03:41:25.454Z,1513.12
2019-05-10T03:42:25.441Z,1468.12
2019-05-10T03:43:25.480Z,1462.50
2019-05-10T03:44:25.419Z,1451.25
2019-05-10T03:45:25.410Z,1473.75
2019-05-10T03:46:25.403Z,1518.75
2019-05-10T03:47:25.392Z,1541.25
2019-05-10T03:48:25.382Z,1580.62
2019-05-10T03:49:25.474Z,1608.75
2019-05-10T03:50:25.365Z,1608.75
2019-05-10T03:51:25.352Z,1530.00
2019-05-10T03:52:25.345Z,1451.25
2019-05-10T03:53:25.333Z,1440.00
2019-05-10T03:54:25.322Z,1479.37
2019-05-10T03:55:25.366Z,1513.12
2019-05-10T03:56:25.307Z,1462.50
2019-05-10T03:57:25.296Z,1423.12
2019-05-10T03:58:25.283Z,1423.12
2019-05-10T03:59:25.277Z,1423.12
2019-05-10T04:00:25.276Z,1423.12
2019-05-10T04:01:25.359Z,1428.75
2019-05-10T04:02:25.265Z,1417.50
2019-05-10T04:03:25.244Z,1423.12
2019-05-10T04:04:25.246Z,1355.62
2019-05-10T04:05:25.230Z,1305.00
2019-05-10T04:06:25.383Z,1209.37
2019-05-10T04:07:25.199Z,928.12
2019-05-10T04:08:25.189Z,686.25
2019-05-10T04:09:25.177Z,556.87
2019-05-10T04:10:25.172Z,523.12
2019-05-10T04:11:25.159Z,511.87
2019-05-10T04:12:25.251Z,500.62
2019-05-10T04:13:25.141Z,489.37
2019-05-10T04:14:25.131Z,483.75
2019-05-10T04:15:25.121Z,478.12
2019-05-10T04:16:25.111Z,472.50
2019-05-10T04:17:25.110Z,466.87
2019-05-10T04:18:25.140Z,461.25
2019-05-10T04:19:25.081Z,461.25
2019-05-10T04:20:25.086Z,455.62
2019-05-10T04:21:25.065Z,450.00
2019-05-10T04:22:25.062Z,444.37
2019-05-10T04:23:25.047Z,438.75
2019-05-10T04:24:25.285Z,438.75
2019-05-10T04:25:25.037Z,433.12
2019-05-10T04:26:25.018Z,427.50
2019-05-10T04:27:32.529Z,421.87
2019-05-10T04:28:49.920Z,421.87
2019-05-10T04:29:49.896Z,421.87
2019-05-10T04:30:49.787Z,416.25
2019-05-10T04:31:49.776Z,416.25
2019-05-10T04:32:49.767Z,410.62
2019-05-10T04:33:49.756Z,410.62
2019-05-10T04:34:49.847Z,405.00
2019-05-10T04:35:49.735Z,399.37
2019-05-10T04:36:49.726Z,399.37
2019-05-10T04:37:49.717Z,399.37
2019-05-10T04:38:49.707Z,393.75
2019-05-10T04:39:49.700Z,393.75
2019-05-10T04:40:49.737Z,388.12
2019-05-10T04:41:49.698Z,388.12
2019-05-10T04:42:49.668Z,382.50
2019-05-10T04:43:49.664Z,382.50
2019-05-10T04:44:53.207Z,376.87
2019-05-10T04:45:49.647Z,376.87
2019-05-10T04:46:49.777Z,376.87
2019-05-10T04:47:49.620Z,371.25
2019-05-10T04:48:49.616Z,371.25
2019-05-10T04:49:49.611Z,365.62
2019-05-10T04:50:49.695Z,365.62
2019-05-10T04:51:49.590Z,360.00
2019-05-10T04:52:49.675Z,360.00
2019-05-10T04:53:49.562Z,360.00
2019-05-10T04:54:49.550Z,354.37
2019-05-10T04:55:49.544Z,354.37
2019-05-10T04:56:49.533Z,348.75
2019-05-10T04:57:51.197Z,348.75
2019-05-10T04:58:49.577Z,348.75
2019-05-10T04:59:49.504Z,343.12
2019-05-10T05:00:49.500Z,343.12
2019-05-10T05:01:49.486Z,343.12
2019-05-10T05:02:49.478Z,337.50
2019-05-10T05:03:49.466Z,337.50
2019-05-10T05:04:49.712Z,331.87
2019-05-10T05:05:49.454Z,331.87
2019-05-10T05:06:49.435Z,331.87
2019-05-10T05:07:49.429Z,331.87
2019-05-10T05:08:49.417Z,326.25
2019-05-10T05:09:49.405Z,326.25
2019-05-10T05:10:49.448Z,320.62
2019-05-10T05:11:49.385Z,320.62
2019-05-10T05:12:49.373Z,320.62
2019-05-10T05:13:49.365Z,320.62
2019-05-10T05:14:49.355Z,315.00
2019-05-10T05:15:49.341Z,315.00
2019-05-10T05:16:49.384Z,315.00
2019-05-10T05:17:49.323Z,309.37
2019-05-10T05:18:49.450Z,309.37
2019-05-10T05:19:49.322Z,309.37
2019-05-10T05:20:49.291Z,303.75
2019-05-10T05:21:49.430Z,303.75
2019-05-10T05:22:49.270Z,303.75
2019-05-10T05:23:49.266Z,298.12
2019-05-10T05:24:49.249Z,298.12
2019-05-10T05:25:49.241Z,298.12
2019-05-10T05:26:49.279Z,298.12
2019-05-10T05:28:05.371Z,292.50
2019-05-10T05:28:50.301Z,292.50
2019-05-10T05:29:49.199Z,292.50
2019-05-10T05:30:49.192Z,292.50
2019-05-10T05:31:54.121Z,286.87
2019-05-10T05:33:14.026Z,286.87
2019-05-10T05:34:14.019Z,286.87
2019-05-10T05:35:15.518Z,286.87
2019-05-10T05:36:13.996Z,281.25
2019-05-10T05:37:13.986Z,281.25
2019-05-10T05:38:14.127Z,275.62
2019-05-10T05:39:13.978Z,264.37
2019-05-10T05:40:13.962Z,253.12
2019-05-10T05:41:13.945Z,253.12
2019-05-10T05:42:13.936Z,253.12
2019-05-10T05:43:13.925Z,253.12
2019-05-10T05:44:13.966Z,253.12
2019-05-10T05:45:13.905Z,253.12
2019-05-10T05:46:14.581Z,247.50
2019-05-10T05:47:13.884Z,247.50
2019-05-10T05:48:15.967Z,247.50
2019-05-10T05:49:38.724Z,247.50
2019-05-10T05:50:38.716Z,247.50
2019-05-10T05:51:38.700Z,247.50
2019-05-10T05:52:38.693Z,247.50
2019-05-10T05:53:42.417Z,247.50
2019-05-10T05:54:38.822Z,247.50
2019-05-10T05:55:38.663Z,241.87
2019-05-10T05:56:38.654Z,241.87
2019-05-10T05:57:38.644Z,241.87
2019-05-10T05:58:44.797Z,241.87
2019-05-10T05:59:39.768Z,241.87
2019-05-10T06:00:44.713Z,241.87
2019-05-10T06:01:39.700Z,241.87
2019-05-10T06:02:44.346Z,241.87
2019-05-10T06:04:06.468Z,241.87
2019-05-10T06:05:03.434Z,241.87
2019-05-10T06:06:15.583Z,241.87
2019-05-10T06:07:04.462Z,241.87
2019-05-10T06:08:03.561Z,241.87
2019-05-10T06:09:03.344Z,241.87
2019-05-10T06:10:03.588Z,241.87
2019-05-10T06:11:03.324Z,241.87
2019-05-10T06:12:07.324Z,241.87
2019-05-10T06:13:30.215Z,241.87
2019-05-10T06:14:28.104Z,241.87
2019-05-10T06:15:28.945Z,241.87
2019-05-10T06:16:28.083Z,241.87
2019-05-10T06:17:29.362Z,241.87
2019-05-10T06:18:28.062Z,241.87
2019-05-10T06:19:29.619Z,241.87
2019-05-10T06:20:28.057Z,241.87
2019-05-10T06:21:28.106Z,241.87
2019-05-10T06:22:28.022Z,241.87
2019-05-10T06:23:29.325Z,241.87
2019-05-10T06:24:54.018Z,241.87
2019-05-10T06:25:52.806Z,241.87
2019-05-10T06:26:52.949Z,241.87
2019-05-10T06:27:52.784Z,241.87
2019-05-10T06:28:59.418Z,241.87
2019-05-10T06:29:53.859Z,241.87
2019-05-10T06:30:52.756Z,241.87
2019-05-10T06:31:52.794Z,241.87
2019-05-10T06:32:59.511Z,241.87
2019-05-10T06:34:17.531Z,241.87
2019-05-10T06:35:19.453Z,247.50
2019-05-10T06:36:17.594Z,247.50
2019-05-10T06:37:17.598Z,247.50
2019-05-10T06:38:17.491Z,247.50
2019-05-10T06:39:17.480Z,247.50
2019-05-10T06:40:17.480Z,247.50
2019-05-10T06:41:19.269Z,247.50
2019-05-10T06:42:17.451Z,247.50
2019-05-10T06:43:17.485Z,247.50
2019-05-10T06:44:17.426Z,247.50
2019-05-10T06:45:17.417Z,247.50
2019-05-10T06:46:17.408Z,247.50
2019-05-10T06:47:17.394Z,247.50
2019-05-10T06:48:26.330Z,247.50
2019-05-10T06:49:50.737Z,253.12
2019-05-10T06:51:09.613Z,253.12
2019-05-10T06:52:07.120Z,253.12
2019-05-10T06:53:10.534Z,253.12
2019-05-10T06:54:07.099Z,253.12
2019-05-10T06:55:07.140Z,253.12
2019-05-10T06:56:07.093Z,253.12
2019-05-10T06:57:11.185Z,253.12
2019-05-10T06:58:36.318Z,253.12
2019-05-10T07:00:05.737Z,253.12
2019-05-10T07:01:21.519Z,253.12
2019-05-10T07:02:26.175Z,253.12
2019-05-10T07:03:46.310Z,253.12
2019-05-10T07:04:46.299Z,253.12
2019-05-10T07:05:46.289Z,253.12
2019-05-10T07:06:46.379Z,253.12
2019-05-10T07:07:46.267Z,253.12
2019-05-10T07:08:51.953Z,253.12
2019-05-10T07:10:18.780Z,253.12
2019-05-10T07:11:35.863Z,253.12
2019-05-10T07:12:36.011Z,253.12
2019-05-10T07:13:40.529Z,253.12
2019-05-10T07:15:03.680Z,253.12
2019-05-10T07:16:00.629Z,253.12
2019-05-10T07:17:02.778Z,253.12
2019-05-10T07:18:00.707Z,258.75
2019-05-10T07:19:02.157Z,258.75
2019-05-10T07:20:00.584Z,258.75
2019-05-10T07:21:06.145Z,264.37
2019-05-10T07:22:01.666Z,264.37
2019-05-10T07:23:05.975Z,264.37
2019-05-10T07:24:01.694Z,270.00
2019-05-10T07:25:04.275Z,270.00
2019-05-10T07:26:00.525Z,275.62
2019-05-10T07:27:02.091Z,275.62
2019-05-10T07:28:00.521Z,275.62
2019-05-10T07:29:00.493Z,281.25
2019-05-10T07:30:00.533Z,281.25
2019-05-10T07:31:00.473Z,286.87
2019-05-10T07:32:00.462Z,286.87
2019-05-10T07:33:02.114Z,292.50
2019-05-10T07:34:00.441Z,298.12
2019-05-10T07:35:01.140Z,298.12
2019-05-10T07:36:00.432Z,303.75
2019-05-10T07:37:01.930Z,309.37
2019-05-10T07:38:00.399Z,309.37
2019-05-10T07:39:02.839Z,309.37
2019-05-10T07:40:25.239Z,315.00
2019-05-10T07:41:27.288Z,309.37
2019-05-10T07:42:25.214Z,309.37
2019-05-10T07:43:28.598Z,309.37
2019-05-10T07:44:25.194Z,309.37
2019-05-10T07:45:25.771Z,309.37
2019-05-10T07:46:25.175Z,309.37
2019-05-10T07:47:30.465Z,303.75
2019-05-10T07:48:53.311Z,298.12
2019-05-10T07:49:49.954Z,298.12
2019-05-10T07:50:51.989Z,298.12
2019-05-10T07:51:49.934Z,298.12
2019-05-10T07:52:49.924Z,298.12
2019-05-10T07:53:49.914Z,303.75
2019-05-10T07:54:49.904Z,303.75
2019-05-10T07:55:49.894Z,303.75
2019-05-10T07:56:49.935Z,309.37
2019-05-10T07:57:49.872Z,309.37
2019-05-10T07:58:49.867Z,309.37
2019-05-10T07:59:51.284Z,309.37
2019-05-10T08:00:49.839Z,315.00
2019-05-10T08:01:49.839Z,315.00
2019-05-10T08:02:57.732Z,320.62
2019-05-10T08:04:21.972Z,326.25
2019-05-10T08:05:39.421Z,331.87
2019-05-10T08:06:44.068Z,331.87
2019-05-10T08:08:04.361Z,337.50
2019-05-10T08:09:07.115Z,337.50
2019-05-10T08:10:04.912Z,337.50
2019-05-10T08:11:04.386Z,343.12
2019-05-10T08:12:05.284Z,343.12
2019-05-10T08:13:04.162Z,348.75
2019-05-10T08:14:06.542Z,348.75
2019-05-10T08:15:05.237Z,348.75
2019-05-10T08:16:05.388Z,348.75
2019-05-10T08:17:06.203Z,348.75
2019-05-10T08:18:04.114Z,348.75
2019-05-10T08:19:04.100Z,348.75
2019-05-10T08:20:08.894Z,354.37
2019-05-10T08:21:28.888Z,360.00
2019-05-10T08:22:32.775Z,360.00
2019-05-10T08:47:47.278Z,376.87
2019-05-10T08:48:51.378Z,376.87
2019-05-10T08:50:08.132Z,376.87
2019-05-10T08:51:12.505Z,382.50
2019-05-10T08:52:12.290Z,382.50
2019-05-10T08:53:16.272Z,382.50
2019-05-10T08:54:12.193Z,382.50
2019-05-10T08:55:12.561Z,388.12
2019-05-10T08:56:13.866Z,382.50
2019-05-10T08:57:43.301Z,382.50
2019-05-10T08:59:03.875Z,382.50
2019-05-10T09:00:07.169Z,382.50
2019-05-10T09:01:30.396Z,376.87
2019-05-10T09:02:52.042Z,376.87
2019-05-10T09:03:55.059Z,376.87
2019-05-10T09:05:22.609Z,382.50
2019-05-10T09:06:42.061Z,376.87
2019-05-10T09:07:42.927Z,376.87
2019-05-10T09:08:42.975Z,376.87
2019-05-10T09:09:49.444Z,382.50
2019-05-10T09:10:42.286Z,376.87
2019-05-10T09:11:43.942Z,376.87
2019-05-10T09:12:50.290Z,376.87
2019-05-10T09:14:05.673Z,382.50
2019-05-10T09:15:10.025Z,382.50
2019-05-10T09:16:39.485Z,382.50
2019-05-10T09:17:32.457Z,382.50
2019-05-10T09:18:30.440Z,382.50
2019-05-10T09:19:39.249Z,382.50
2019-05-10T09:21:00.425Z,382.50
2019-05-10T09:22:24.043Z,382.50
2019-05-10T09:23:44.885Z,382.50
2019-05-10T09:24:48.595Z,382.50
2019-05-10T09:25:44.915Z,382.50
2019-05-10T09:26:46.919Z,382.50
2019-05-10T09:28:16.474Z,382.50
2019-05-10T09:29:12.094Z,382.50
2019-05-10T09:30:14.204Z,382.50
2019-05-10T09:31:34.586Z,376.87
2019-05-10T09:32:34.583Z,376.87
2019-05-10T09:33:34.564Z,376.87
2019-05-10T09:34:34.554Z,376.87
2019-05-10T09:35:38.876Z,376.87
2019-05-10T09:36:59.595Z,371.25
2019-05-10T09:37:59.385Z,371.25
2019-05-10T09:38:59.374Z,371.25
2019-05-10T09:40:08.112Z,371.25
2019-05-10T09:41:27.567Z,371.25
2019-05-10T09:42:49.311Z,371.25
2019-05-10T09:43:50.607Z,371.25
2019-05-10T09:44:49.291Z,371.25
2019-05-10T09:45:49.280Z,371.25
2019-05-10T09:46:49.267Z,371.25
2019-05-10T09:47:49.307Z,371.25
2019-05-10T09:48:54.639Z,371.25
